KBXA/BXA METAR and TAF weather

Enter ICAO airport designator
Station Type Date Time Source
KBXA METAR 2021/09/25 11:55 UTC NOAA

KBXA 251155Z AUTO 00000KT 10SM CLR 12/10 A3012 RMK AO2 T01160103 10137 20115


Station Type Date Time Source
KBXA Decoded METAR 2021/09/25 11:55 UTC NOAA

Bogalusa, George R Carr Memorial Air Field, LA, United States (KBXA) 30-48-49N 089-51-53W
Sep 25, 2021 - 07:55 AM EDT / 2021.09.25 1155 UTC
Wind: Calm:0
Visibility: 10 mile(s):0
Sky conditions: clear
Temperature: 52.9 F (11.6 C)
Dew Point: 50.5 F (10.3 C)
Relative Humidity: 91%
Pressure (altimeter): 30.12 in. Hg (1019 hPa)
ob: KBXA 251155Z AUTO 00000KT 10SM CLR 12/10 A3012 RMK AO2 T01160103 10137 20115
cycle: 12

Station Type Date Time Source
KBXA TAF UTC NOAA

Error!

Example: see airport list